Terminal Aerodrome Forecast
Issued by NWS Grand Forks, ND

Home | Current Version | Previous Version | Graphics & Text | Print | Product List | Glossary On
Versions: 1 2 3 4 5 6 7 8 9 10 11 12 13 14 15 16
931
FTUS43 KFGF 240520
TAFFAR
TAF
KFAR 240520Z 2406/2506 31012KT P6SM OVC040
     FM240700 28005KT P6SM FEW040
     FM241600 28012KT P6SM SKC
     FM241900 27016G24KT P6SM FEW050
     FM250100 28011KT P6SM FEW250=

USA.gov is the U.S. government's official web portal to all federal, state and local government web resources and services.